Flight Track Log - Related Links

Times and Time Zones

All times are in EDT time to prevent confusion due to time zone crossing. See the EJA314 flight status page for this flight to view local times or setup timezone preferences in your user account.

Time Position Orientation Groundspeed Altitude Reporting Facility
EDT Latitude Longitude Course Direction KTS MPH feet Rate Location/Type
Wed 05:38:45 PM 36.8972 -76.2047 199° South 136 157 600  Level Washington Center
Wed 05:41:20 PM 36.8517 -76.1317 128° Southeast 282 325 4,900 1,814 Climbing Washington Center
Wed 05:42:20 PM 36.7972 -76.1756 213° Southwest 268 308 7,100 3,102 Climbing Washington Center
Wed 05:43:00 PM 36.6418 -76.2030 202° Southwest  Level Estimated
Wed 05:43:18 PM 36.7322 -76.2269 212° Southwest 268 308 11,000  Level Washington Center
Wed 05:44:00 PM 36.5370 -76.2474 199° South  Level Estimated
Wed 05:45:19 PM 36.6147 -76.3475 219° Southwest 268 308 19,300  Level Washington Center
Wed 05:46:20 PM 36.5478 -76.3933 209° Southwest 273 314 22,100 1,866 Climbing Washington Center
Wed 05:47:18 PM 36.4597 -76.4442 205° Southwest 300 345 23,000 454 Climbing Washington Center
Wed 05:48:19 PM 36.3550 -76.4972 202° Southwest 350 403 23,000 1,725 Level Washington Center
Wed 05:51:18 PM 36.0489 -76.6658 204° Southwest 403 464 29,900 2,173 Climbing Washington Center
Wed 05:53:20 PM 35.8622 -76.7658 203° Southwest 374 430 33,900 1,216 Climbing Washington Center
Wed 05:56:19 PM 35.6039 -76.9486 207° Southwest 364 419 36,000 753 Climbing Washington Center
Wed 05:57:19 PM 35.5153 -77.0158 212° Southwest 370 426 36,900 663 Climbing Washington Center
Wed 05:59:20 PM 35.3386 -77.1478 212° Southwest 370 426 38,000 275 Climbing Washington Center
Wed 06:01:19 PM 35.1572 -77.2842 212° Southwest 376 433 38,000 335 Level Washington Center
Wed 06:02:19 PM 35.0664 -77.3506 211° Southwest 381 438 39,000 500 Climbing Washington Center
Wed 06:05:19 PM 34.8069 -77.5447 207° Southwest 375 432 40,000 250 Climbing Washington Center
Wed 06:06:19 PM 34.7139 -77.6108 210° Southwest 375 432 40,000  Level Washington Center
Wed 06:07:19 PM 34.6231 -77.6792 212° Southwest 380 437 40,000  Level Washington Center
Wed 06:08:18 PM 34.5300 -77.7475 211° Southwest 390 449 40,000  Level Washington Center
Wed 06:09:19 PM 34.4369 -77.8156 211° Southwest 390 449 40,000  Level Washington Center
Wed 06:10:19 PM 34.3461 -77.8786 210° Southwest 390 449 40,000  Level Washington Center
Wed 06:11:18 PM 34.2475 -77.9058 193° South 385 443 40,000  Level Washington Center
Wed 06:13:51 PM 33.9747 -77.9844 193° South 406 467 40,000  Level Jacksonville Center
Wed 06:14:51 PM 33.8694 -78.0153 194° South 401 461 40,000  Level Jacksonville Center
Wed 06:15:51 PM 33.7622 -78.0464 194° South 396 456 40,000  Level Jacksonville Center
Wed 06:16:51 PM 33.6486 -78.0775 193° South 390 449 40,000  Level Jacksonville Center
Wed 06:17:51 PM 33.5475 -78.1081 194° South 390 449 40,000  Level Jacksonville Center
Wed 06:18:51 PM 33.4442 -78.1358 193° South 390 449 40,000  Level Jacksonville Center
Wed 06:19:51 PM 33.3431 -78.1661 194° South 390 449 40,000  Level Jacksonville Center
Wed 06:20:51 PM 33.2400 -78.1967 194° South 390 449 40,000  Level Jacksonville Center
Wed 06:22:51 PM 33.0231 -78.2550 193° South 395 455 40,000  Level Jacksonville Center
Wed 06:24:38 PM 32.8378 -78.3147 193° South 369 425 40,000  Level Miami Center
Wed 06:25:51 PM 32.7047 -78.3453 191° South 395 455 40,000  Level Jacksonville Center
Wed 06:26:51 PM 32.5994 -78.3728 192° South 395 455 40,000  Level Jacksonville Center
Wed 06:27:51 PM 32.4961 -78.4050 195° South 395 455 40,000  Level Jacksonville Center
Wed 06:28:51 PM 32.3928 -78.4347 194° South 390 449 40,000  Level Jacksonville Center
Wed 06:29:51 PM 32.2894 -78.4644 194° South 390 449 40,000  Level Jacksonville Center
Wed 06:30:51 PM 32.1925 -78.4936 194° South 390 449 40,000  Level Jacksonville Center
Wed 06:31:51 PM 32.0850 -78.5258 194° South 390 449 40,000  Level Jacksonville Center
Wed 06:33:55 PM 31.8867 -78.5844 194° South 379 436 40,000  Level Miami Center
Wed 06:34:51 PM 31.7792 -78.6136 193° South 390 449 40,000  Level Jacksonville Center
Wed 06:35:51 PM 31.6778 -78.6403 193° South 390 449 40,000  Level Jacksonville Center
Wed 06:36:51 PM 31.5806 -78.6692 194° South 383 441 40,000  Level Jacksonville Center
Wed 06:38:51 PM 31.3800 -78.7292 194° South 369 425 40,000  Level Jacksonville Center
Wed 06:40:51 PM 31.1814 -78.7817 193° South 376 433 40,000  Level Jacksonville Center
Wed 06:41:51 PM 31.0822 -78.8128 195° South 376 433 40,000  Level Jacksonville Center
Wed 06:42:51 PM 30.9744 -78.8392 192° South 376 433 40,000  Level Jacksonville Center
Wed 06:43:51 PM 30.8814 -78.8697 196° South 371 427 40,000  Level Jacksonville Center
Wed 06:44:51 PM 30.7800 -78.8983 194° South 371 427 40,000  Level Jacksonville Center
Wed 06:45:51 PM 30.6722 -78.9244 192° South 377 434 40,000  Level Jacksonville Center
Wed 06:46:51 PM 30.5753 -78.9550 195° South 377 434 40,000  Level Jacksonville Center
Wed 06:48:22 PM 30.4314 -78.9936 193° South 375 432 40,000  Level Miami Center
Wed 06:49:24 PM 30.3297 -79.0214 193° South 374 430 40,000  Level Miami Center
Wed 06:50:25 PM 30.2264 -79.0472 192° South 378 435 40,000  Level Miami Center
Wed 06:51:27 PM 30.1044 -79.0792 193° South 376 433 40,000  Level Miami Center
Wed 06:52:29 PM 30.0031 -79.1050 192° South 376 433 40,000  Level Miami Center
Wed 06:53:31 PM 29.9172 -79.1283 193° South 369 425 40,000  Level Miami Center
Wed 06:54:33 PM 29.7953 -79.1592 192° South 370 426 40,000  Level Miami Center
Wed 06:55:35 PM 29.6947 -79.1847 192° South 370 426 40,000  Level Miami Center
Wed 06:56:37 PM 29.5947 -79.2103 193° South 370 426 40,000  Level Miami Center
Wed 06:57:39 PM 29.4939 -79.2356 192° South 370 426 40,000  Level Miami Center
Wed 06:58:40 PM 29.3936 -79.2608 192° South 369 425 40,000  Level Miami Center
Wed 07:04:44 PM 28.7693 -79.4172 192° South 367 422 40,000  Level FlightAware ADS-B
Wed 07:07:40 PM 28.4822 -79.4956 208° Southwest 342 394 40,000  Level FlightAware ADS-B
Wed 07:07:50 PM 28.4690 -79.5061 219° Southwest 332 382 40,000  Level FlightAware ADS-B
Wed 07:08:21 PM 28.4362 -79.5433 226° Southwest 326 375 40,000  Level FlightAware ADS-B
Wed 07:08:51 PM 28.4047 -79.5801 226° Southwest 326 375 40,000  Level FlightAware ADS-B
Wed 07:09:30 PM 28.3631 -79.6282 226° Southwest 325 374 40,000  Level FlightAware ADS-B
Wed 07:10:11 PM 28.3194 -79.6783 225° Southwest 326 375 40,000  Level FlightAware ADS-B
Wed 07:10:41 PM 28.2879 -79.7143 225° Southwest 327 376 40,000  Level FlightAware ADS-B
Wed 07:11:11 PM 28.2560 -79.7505 225° Southwest 327 376 40,000 -76 Level FlightAware ADS-B
Wed 07:12:00 PM 28.2027 -79.8116 226° Southwest 330 380 39,900 -539 Descending FlightAware ADS-B
Wed 07:12:40 PM 28.1708 -79.8486 226° Southwest 335 386 39,200 -1,256 Descending FlightAware ADS-B
Wed 07:13:26 PM 28.1091 -79.9174 219° Southwest 343 395 38,100 -1,600 Descending FlightAware ADS-B
Wed 07:14:10 PM 28.0494 -79.9595 203° Southwest 347 399 36,800 -1,520 Descending FlightAware ADS-B
Wed 07:14:41 PM 28.0013 -79.9751 190° South 353 406 36,200 -1,180 Descending FlightAware ADS-B
Wed 07:15:11 PM 27.9532 -79.9785 177° South 373 429 35,600 -1,322 Descending FlightAware ADS-B
Wed 07:15:40 PM 27.8990 -79.9680 163° South 407 468 34,900 -1,300 Descending FlightAware ADS-B
Wed 07:16:11 PM 27.8424 -79.9492 164° South 413 475 34,300 -1,556 Descending FlightAware ADS-B
Wed 07:17:01 PM 27.7502 -79.9192 164° South 419 482 32,800 -1,950 Descending FlightAware ADS-B
Wed 07:17:31 PM 27.6934 -79.9007 164° South 424 488 31,700 -2,200 Descending FlightAware ADS-B
Wed 07:18:01 PM 27.6365 -79.8822 164° South 428 493 30,600 -2,325 Descending FlightAware ADS-B
Wed 07:18:51 PM 27.5401 -79.8509 164° South 430 495 28,600 -2,333 Descending FlightAware ADS-B
Wed 07:19:31 PM 27.4630 -79.8261 164° South 448 516 27,100 -2,314 Descending FlightAware ADS-B
Wed 07:20:01 PM 27.4032 -79.8067 164° South 446 513 25,900 -1,879 Descending FlightAware ADS-B
Wed 07:21:10 PM 27.2715 -79.7643 165° South 436 502 24,000 -1,346 Descending FlightAware ADS-B
Wed 07:21:48 PM 27.1937 -79.7408 165° South 425 489 23,500 -2,178 Descending FlightAware ADS-B
Wed 07:23:25 PM 27.0189 -79.6881 180° South 422 486 19,100 -2,566 Descending Miami Center
Wed 07:24:27 PM 26.9069 -79.6547 165° South 397 457 16,700 -2,098 Descending Miami Center
Wed 07:25:28 PM 26.8019 -79.6603 183° South 363 418 14,800 -1,707 Descending Miami Center
Wed 07:26:30 PM 26.7189 -79.6989 203° Southwest 364 419 13,200 -1,704 Descending Miami Center
Wed 07:26:49 PM 26.6831 -79.7183 206° Southwest 354 407 12,500 -1,645 Descending Miami Center
Wed 07:27:32 PM 26.6300 -79.7419 202° Southwest 351 404 11,500 -1,514 Descending Miami Center
Wed 07:28:40 PM 26.5347 -79.7867 203° Southwest 271 312 9,700 -1,463 Descending Miami Center
Wed 07:29:00 PM 26.5179 -79.8167 180° South  Level FlightAware Approximate
Wed 07:29:35 PM 26.4722 -79.8164 203° Southwest 268 308 8,500  Level Miami Center
Wed 07:30:37 PM 26.4036 -79.8492 203° Southwest 250 288 8,000 -234 Descending Miami Center
Wed 07:31:43 PM 26.3439 -79.8958 215° Southwest 241 277 8,000 -293 Level Miami Center
Wed 07:32:40 PM 26.3028 -79.9453 227° Southwest 234 269 7,400 -1,714 Descending Miami Center
Wed 07:33:42 PM 26.2697 -80.0114 241° Southwest 227 261 4,600 -1,645 Descending Miami Center
Wed 07:34:44 PM 26.2372 -80.0536 229° Southwest 226 260 4,000 -293 Descending Miami Center
Wed 07:35:45 PM 26.2050 -80.0028 125° Southeast 212 244 4,000 -49 Level Miami Center
Wed 07:36:47 PM 26.1956 -79.9272 98° East 209 241 3,900 -48 Descending Miami Center
Wed 07:37:49 PM 26.2014 -79.8622 84° East 208 239 3,900 49 Level Miami Center
Wed 07:38:50 PM 26.2025 -79.7983 89° East 208 239 4,000 33 Climbing Miami Center
Wed 07:40:53 PM 26.1006 -79.8200 248° West 201 231 4,000 -158 Level Miami Center
Wed 07:42:00 PM 26.0742 -79.8875 246° West 203 234 3,500 -683 Descending Miami Center
Wed 07:42:56 PM 26.0758 -79.9361 272° West 197 227 2,600 -763 Descending Miami Center
Wed 07:43:58 PM 26.0756 -79.9972 270° West 199 229 2,000 -629 Descending Miami Center
Wed 07:45:00 PM 26.0761 -80.0658 271° West 189 217 1,300 -700 Descending Miami Center
Wed 07:45:58 PM 26.0753 -80.1078 269° West 123 142 600 3,268 Descending Miami Center
Wed 07:47:03 PM 26.0767 -80.1464 272° West 121 139 8,000 6,831 Climbing Miami Center
Wed 07:49:00 PM 26.0726 -80.1527 281° West  Level Estimated

Login

Don't have an account? Register now (free) for customized features, flight alerts, and more!